Portada
METAR-TAF:

METAR-TAF

Aeroports :

Stigler, Oklahoma, Estats Units d'Amèrica

latitud: 35-17-17N, longitud: 095-05-38W, altitud: 183 m

Observació

L'informe es va fer fa 24 minuts, a les 01:15 UTC
Vent 6 kt del Sud/Sud-Oest
Temperatura 33°C
Humitat 59%
Pressió 1015 hPa
Visibilitat: 11.3 km
Cel clar

METAR: KGZL 250115Z AUTO 20006KT 7SM CLR 33/24 A2997 RMK AO2

Hora: 20:39 (01:39 UTC)


TAF: manca

Observacions i pronòstics meteorològics de més de 4000 aeroports (METAR i TAF).

Les estacions disponibles són els punts grocs i vermells al mapa.

Posi el ratolí al punt desitjat per veure el nom de l'estació.

Feu clic per veure les observacions i els pronòstics meteorològics.

Per canviar el mapa: feu clic els botons verds amb una creu de color negre per apropar; al botó verd amb un guió per allunyar la imatge; o en les fletxes verdes per a mapes adjacents.


METAR-TAF: